Hebron, KY (41048)

12:51 AM EDT on August 24, 2016 (GMT -0400)
APRSWXNET | | Change Station

Elev 863 ft 39.04 °N, 84.72 °W | Updated 17 minutes ago

Scattered Clouds
Scattered Clouds
70 °F
Feels Like 70 °F
N
1
Wind Variable Wind from SE
Gusts 0.0 mph

Today
High -- | Low -- °F
--% Chance of Precip.
Yesterday
High -- | Low -- °F
Precip. -- in
Pressure 30.19 in
Visibility 10.0 miles
Clouds Few 20000 ft
Scattered Clouds 25000 ft
Dew Point 62 °F
Humidity 77%
Rainfall in
Snow Depth Not available.
7:00 AM 8:20 PM
Waning Gibbous, 61% visible
METAR KCVG 240352Z 15003KT 10SM FEW200 SCT250 21/16 A3021 RMK AO2 SLP221 T02060161
Pressure 30.19 in
Visibility 10.0 miles
Clouds Few 20000 ft
Scattered Clouds 25000 ft
Dew Point 62 °F
Humidity 77%
Rainfall in
Snow Depth Not available.
7:00 AM 8:20 PM
Waning Gibbous, 61% visible
METAR KCVG 240352Z 15003KT 10SM FEW200 SCT250 21/16 A3021 RMK AO2 SLP221 T02060161

10-Day Weather Forecast

Almanac

Astronomy

Aug. 24, 2016 Rise Set
Actual Time
Civil Twilight
Nautical Twilight
Astronomical Twilight
Moon
Length of Visible Light
Length of Day
Tomorrow will be .
, % of the Moon is Illuminated

Today's Extremes

State Highs State Lows

Community

WunderPhotos

Upload Photos

1,934,554 photos uploaded!

WunderBlog® & News

Nearby

Air Quality

  Air Quality AQ Index Pollutant
Not available.

Snow Depth

Station Depth Elevation

Earthquake Activity

City Distance Mag. Time & Date
Minimum magnitude displayed is 2.5.

Coastal Water Temperatures

Place Temperature

Stations

Nearby Weather Stations

Station Location Temp. Windchill Dew Point Humidity Wind Precip. Elev Updated Type
                   

Watches & Warnings

There are currently no watches in effect.